LEAMGMTT

Guest
Details From LEAM - Almeria
To GMTT - IBN BATOUTA
Flight Number -
Tags generated
Created
Modified
Stats Distance 196 nm / 362 km
Max Altitude 20,200 ft / 6,157 m
Waypoints 4
Social Downloads 5
Likes 0
Share VATSIM

Download

Looking for another format? Having issues loading an existing format? Contact us
Advertisement - Login to hide

Notes

Basic altitude profile: - Ascent Rate: 2500ft/min - Ascent Speed: 250kts - Cruise Altitude: 35000ft - Cruise Speed: 420kts - Descent Rate: 1500ft/min - Descent Speed: 250kts Options: - Use NATs: yes - Use PACOTS: yes - Use low airways: yes - Use high airways: no

Route

LEAM ADRAS A44 MGA GMTT

ID Type Via Altitude Latitude Longitude Leg Dist Tot Dist Heading (true) Name
O LEAM APT - 0 ft / 0 m 36.84393˚ -2.37010˚ - 0 nm - Almeria
ADRAS FIX - 6,100 ft / 1,859 m 36.83216˚ -2.72753˚ 17 nm 17 nm 268° / 268° -
MGA VOR A44 (AWY-LO) 20,200 ft / 6,157 m 36.81431˚ -4.36952˚ 78 nm 96 nm 270° / 269° MALAGA VOR-DME
O GMTT APT - 0 ft / 0 m 35.72691˚ -5.91690˚ 99 nm 195 nm 229° / 228° IBN BATOUTA

Altitude Profile

Advertisement - Login to hide

Weather


0- 5 10 15 20 25 30 35+ Temperature / ° C

Clouds and Precipitation
Forecast for 2017-12-17 12:00 UTC. Updated an hour ago

Ground ~20,000 ft ~40,000 ft Winds

LEAM

Details ICAO LEAM (LEI)
Name Almeria
Region Spain
Timezone Unknown (UTC+0.0)
Stats Elevation 70 ft / 21 m (AMSL)
Location 36.843935° -2.370097°
Runways 1
Magnetic Variation 0.287° W

METAR

LEAM 170830Z 33013KT CAVOK 09/M00 Q1026

Decode

TAF

TAF TAF LEAM 170800Z 1709/1809 35012KT CAVOK TX16/1714Z TN06/1806Z TEMPO 1712/1720 10010KT

Decode

Departure Runways

ID Width Length Bearing (true) Bearing (mag) Surface Threshold Offset Overrun Length
08 148 ft / 45 m 10,484 ft / 3,196 m 72.94° 73.23° Asphalt 492 ft / 150 m 191 ft / 58 m
26 148 ft / 45 m 10,484 ft / 3,196 m 252.96° 253.25° Asphalt 0 ft / 0 m 150 ft / 46 m

GMTT

Details ICAO GMTT (TNG)
Name IBN BATOUTA
Region Morocco
Timezone Africa/Casablanca (UTC+0.0)
Stats Elevation 62 ft / 19 m (AMSL)
Location 35.726911° -5.916900°
Runways 2
Magnetic Variation 1.289° W

METAR

GMTT 170830Z 07014KT 9999 SCT016 13/08 Q1025 NOSIG

Decode

TAF

TAF TAF GMTT 170500Z 1706/1812 07008KT 7000 FEW020 BECMG 1707/1709 09019G29KT

Decode

Destination Runways

ID Width Length Bearing (true) Bearing (mag) Surface Threshold Offset Overrun Length
07 98 ft / 30 m 6,555 ft / 1,998 m 69.91° 71.20° Asphalt 0 ft / 0 m 0 ft / 0 m
10 148 ft / 45 m 11,465 ft / 3,495 m 96.01° 97.30° Asphalt 0 ft / 0 m 197 ft / 60 m
25 98 ft / 30 m 6,555 ft / 1,998 m 249.92° 251.21° Asphalt 0 ft / 0 m 0 ft / 0 m
28 148 ft / 45 m 11,465 ft / 3,495 m 276.03° 277.32° Asphalt 1,640 ft / 500 m 197 ft / 60 m

Approach Navaids

Runway Type Ident Frequency Range Bearing (true) Bearing (mag) Slope Elevation
28 Localiser TAG 109.30 MHz 18 nm / 33 km 276.22° 277.51° - 62 ft / 19 m (AMSL)
28 Glidescope TAG 109.30 MHz 10 nm / 19 km 276.02° 277.31° 2.99° 52 ft / 16 m (AMSL)